createdAt,value
2022-11-03T00:00:11.485Z,62.64
2022-11-03T00:02:44.487Z,62.38
2022-11-03T00:05:32.876Z,62.25
2022-11-03T00:08:06.011Z,61.73
2022-11-03T00:10:35.910Z,61.84
2022-11-03T00:13:07.992Z,61.55
2022-11-03T00:15:38.989Z,61.25
2022-11-03T00:18:10.985Z,61.42
2022-11-03T00:20:42.024Z,61.75
2022-11-03T00:23:17.342Z,62.18
2022-11-03T00:25:46.760Z,60.86
2022-11-03T00:28:20.673Z,60.82
2022-11-03T00:30:51.646Z,60.23
2022-11-03T00:33:27.545Z,59.69
2022-11-03T00:36:02.539Z,59.31
2022-11-03T00:38:33.864Z,58.13
2022-11-03T00:41:06.102Z,58.35
2022-11-03T00:43:37.660Z,57.92
2022-11-03T00:46:09.714Z,56.22
2022-11-03T00:48:43.241Z,56.59
2022-11-03T00:51:28.036Z,56.44
2022-11-03T00:54:04.203Z,55.99
2022-11-03T00:56:37.867Z,56.03
2022-11-03T00:59:09.911Z,56.33
2022-11-03T01:01:47.201Z,56.16
2022-11-03T01:04:38.171Z,55.29
2022-11-03T01:07:08.441Z,56.77
2022-11-03T01:09:41.643Z,56.73
2022-11-03T01:12:19.144Z,56.92
2022-11-03T01:14:52.337Z,57.46
2022-11-03T01:17:24.988Z,57.71
2022-11-03T01:19:56.436Z,57.33
2022-11-03T01:22:25.944Z,57.04
2022-11-03T01:24:56.895Z,57.12
2022-11-03T01:27:26.504Z,56.79
2022-11-03T01:29:57.501Z,56.82
2022-11-03T01:32:27.095Z,57.78
2022-11-03T01:35:00.394Z,57.52
2022-11-03T01:37:30.520Z,57.41
2022-11-03T01:40:05.066Z,57.28
2022-11-03T01:42:34.572Z,57.16
2022-11-03T01:45:03.944Z,57.39
2022-11-03T01:47:36.816Z,56.84
2022-11-03T01:50:11.841Z,57.42
2022-11-03T01:52:53.176Z,58.15
2022-11-03T01:55:31.272Z,57.58
2022-11-03T01:58:08.901Z,58.20
2022-11-03T02:00:43.314Z,57.19
2022-11-03T02:03:14.904Z,58.49
2022-11-03T02:05:47.899Z,58.47
2022-11-03T02:08:28.947Z,58.24
2022-11-03T02:10:59.911Z,57.46
2022-11-03T02:13:32.924Z,58.15
2022-11-03T02:16:05.609Z,58.09
2022-11-03T02:18:35.570Z,57.98
2022-11-03T02:21:50.771Z,58.03
2022-11-03T02:24:51.268Z,57.62
2022-11-03T02:27:24.749Z,58.11
2022-11-03T02:29:55.294Z,58.19
2022-11-03T02:32:33.284Z,59.15
2022-11-03T02:35:20.207Z,59.31
2022-11-03T02:37:55.880Z,59.41
2022-11-03T02:40:34.583Z,58.86
2022-11-03T02:43:04.425Z,59.57
2022-11-03T02:45:33.016Z,59.39
2022-11-03T02:48:03.062Z,58.86
2022-11-03T02:50:33.578Z,59.06
2022-11-03T02:53:02.365Z,59.78
2022-11-03T02:55:48.597Z,59.32
2022-11-03T02:58:26.716Z,58.94
2022-11-03T03:01:14.998Z,58.80
2022-11-03T03:03:50.424Z,58.47
2022-11-03T03:06:29.463Z,57.40
2022-11-03T03:09:02.175Z,57.70
2022-11-03T03:11:39.981Z,58.02
2022-11-03T03:14:15.051Z,57.34
2022-11-03T03:16:49.349Z,58.16
2022-11-03T03:19:49.428Z,58.54
2022-11-03T03:22:25.294Z,60.23
2022-11-03T03:25:07.709Z,60.44
2022-11-03T03:27:40.150Z,59.53
2022-11-03T03:30:10.276Z,58.79
2022-11-03T03:32:41.428Z,57.93
2022-11-03T03:35:20.682Z,57.77
2022-11-03T03:37:52.082Z,58.40
2022-11-03T03:40:25.692Z,58.69
2022-11-03T03:42:57.056Z,59.90
2022-11-03T03:45:26.948Z,60.59
2022-11-03T03:47:57.763Z,60.20
2022-11-03T03:50:29.040Z,60.94
2022-11-03T03:53:06.111Z,62.11
2022-11-03T03:55:37.956Z,60.00
2022-11-03T03:58:07.696Z,60.17
2022-11-03T04:00:40.303Z,59.75
2022-11-03T04:03:21.774Z,60.28
2022-11-03T04:05:50.119Z,61.01
2022-11-03T04:08:20.110Z,60.55
2022-11-03T04:11:07.534Z,59.91
2022-11-03T04:13:55.720Z,60.67
2022-11-03T04:16:42.619Z,59.70
2022-11-03T04:19:30.598Z,59.55
2022-11-03T04:22:16.740Z,59.38
2022-11-03T04:24:51.938Z,60.57
2022-11-03T04:27:41.269Z,60.40
2022-11-03T04:30:09.482Z,59.84
2022-11-03T04:32:38.416Z,58.97
2022-11-03T04:35:22.672Z,59.11
2022-11-03T04:37:59.278Z,59.88
2022-11-03T04:40:28.249Z,60.39
2022-11-03T04:42:57.908Z,59.88
2022-11-03T04:45:30.961Z,60.63
2022-11-03T04:48:02.243Z,61.30
2022-11-03T04:50:30.905Z,60.48
2022-11-03T04:53:00.586Z,60.48
2022-11-03T04:55:29.363Z,59.55
2022-11-03T04:57:59.054Z,58.98
2022-11-03T05:00:28.710Z,58.70
2022-11-03T05:02:56.961Z,59.38
2022-11-03T05:05:26.584Z,59.72
2022-11-03T05:07:57.384Z,59.50
2022-11-03T05:10:27.875Z,60.53
2022-11-03T05:12:57.128Z,61.21
2022-11-03T05:15:31.946Z,60.99
2022-11-03T05:18:02.114Z,61.02
2022-11-03T05:20:50.785Z,61.91
2022-11-03T05:23:20.402Z,62.32
2022-11-03T05:25:51.236Z,62.26
2022-11-03T05:28:31.709Z,61.75
2022-11-03T05:31:00.395Z,62.23
2022-11-03T05:33:34.917Z,62.05
2022-11-03T05:36:15.586Z,62.39
2022-11-03T05:38:44.636Z,62.37
2022-11-03T05:41:20.354Z,62.77
2022-11-03T05:44:02.854Z,62.40
2022-11-03T05:46:32.605Z,62.19
2022-11-03T05:49:02.865Z,61.90
2022-11-03T05:51:35.311Z,62.33
2022-11-03T05:54:06.030Z,62.17
2022-11-03T05:56:35.337Z,62.29
2022-11-03T05:59:05.325Z,63.05
2022-11-03T06:01:35.872Z,62.31
2022-11-03T06:04:28.287Z,61.90
2022-11-03T06:07:00.935Z,61.37
2022-11-03T06:09:30.362Z,61.56
2022-11-03T06:12:03.799Z,61.42
2022-11-03T06:14:40.586Z,61.97
2022-11-03T06:17:36.209Z,60.58
2022-11-03T06:20:29.925Z,61.50
2022-11-03T06:23:33.029Z,61.71
2022-11-03T06:26:19.430Z,60.58
2022-11-03T06:28:56.370Z,61.55
2022-11-03T06:31:56.038Z,61.34
2022-11-03T06:34:52.756Z,60.60
2022-11-03T06:44:02.628Z,60.46
2022-11-03T06:46:51.496Z,60.05
2022-11-03T06:49:46.438Z,60.20
2022-11-03T06:52:40.375Z,60.33
2022-11-03T06:55:53.941Z,61.15
2022-11-03T06:58:29.919Z,60.64
2022-11-03T07:01:38.925Z,61.05
2022-11-03T07:04:21.061Z,59.98
2022-11-03T07:08:31.302Z,59.31
2022-11-03T07:11:30.376Z,58.07
2022-11-03T07:14:39.649Z,57.59
2022-11-03T07:17:35.848Z,57.18
2022-11-03T07:20:36.578Z,56.85
2022-11-03T07:23:22.567Z,56.96
2022-11-03T07:26:00.634Z,56.65
2022-11-03T07:28:36.108Z,56.54
2022-11-03T07:31:17.239Z,56.31
2022-11-03T07:33:46.067Z,56.07
2022-11-03T07:36:22.450Z,56.62
2022-11-03T07:38:56.803Z,56.88
2022-11-03T07:41:58.135Z,57.18
2022-11-03T07:44:29.747Z,57.36
2022-11-03T07:47:00.701Z,58.19
2022-11-03T07:49:30.687Z,58.39
2022-11-03T07:52:01.046Z,58.44
2022-11-03T07:54:32.198Z,59.23
2022-11-03T07:57:04.473Z,59.86
2022-11-03T07:59:39.108Z,59.51
2022-11-03T08:02:36.449Z,60.17
2022-11-03T08:05:08.115Z,61.08
2022-11-03T08:07:42.318Z,62.15
2022-11-03T08:10:15.368Z,61.70
2022-11-03T08:13:01.500Z,61.18
2022-11-03T08:15:38.805Z,61.26
2022-11-03T08:20:38.339Z,63.57
2022-11-03T08:23:25.747Z,62.71
2022-11-03T08:25:54.539Z,62.18
2022-11-03T08:28:23.358Z,62.00
2022-11-03T08:30:51.386Z,62.74
2022-11-03T08:33:19.726Z,61.99
2022-11-03T08:35:48.905Z,61.87
2022-11-03T08:38:16.988Z,61.20
2022-11-03T08:40:50.082Z,61.76
2022-11-03T08:43:21.023Z,62.49
2022-11-03T08:45:53.742Z,62.33
2022-11-03T08:48:27.375Z,62.05
2022-11-03T08:50:58.547Z,62.48
2022-11-03T08:53:27.851Z,61.64
2022-11-03T08:55:56.608Z,62.44
2022-11-03T08:58:25.214Z,62.69
2022-11-03T09:00:54.562Z,61.57
2022-11-03T09:03:22.731Z,62.15
2022-11-03T09:05:52.001Z,61.76
2022-11-03T09:11:10.596Z,62.93
2022-11-03T09:13:39.804Z,62.82
2022-11-03T09:16:08.482Z,62.99
2022-11-03T09:18:36.651Z,61.63
2022-11-03T09:21:05.139Z,62.00
2022-11-03T09:23:33.561Z,61.51
2022-11-03T09:26:01.696Z,61.43
2022-11-03T09:28:30.468Z,62.55
2022-11-03T09:30:59.552Z,62.48
2022-11-03T09:33:31.075Z,62.67
2022-11-03T09:36:02.694Z,62.13
2022-11-03T09:38:30.628Z,62.08
2022-11-03T09:40:59.048Z,61.99
2022-11-03T09:43:30.322Z,62.40
2022-11-03T09:46:01.127Z,62.57
2022-11-03T09:48:30.570Z,62.49
2022-11-03T09:50:59.500Z,62.47
2022-11-03T09:53:30.896Z,61.49
2022-11-03T09:55:59.477Z,62.37
2022-11-03T09:58:28.044Z,62.46
2022-11-03T10:01:01.447Z,61.69
2022-11-03T10:03:32.476Z,62.21
2022-11-03T10:06:04.181Z,62.71
2022-11-03T10:08:40.298Z,62.92
2022-11-03T10:11:09.657Z,62.43
2022-11-03T10:13:40.646Z,62.38
2022-11-03T10:16:09.403Z,61.45
2022-11-03T10:18:38.161Z,61.69
2022-11-03T10:21:09.421Z,62.45
2022-11-03T10:23:37.612Z,62.75
2022-11-03T10:26:11.692Z,62.72
2022-11-03T10:28:40.752Z,64.92
2022-11-03T10:31:22.449Z,63.99
2022-11-03T10:33:56.118Z,64.06
2022-11-03T10:36:26.968Z,63.50
2022-11-03T10:38:56.905Z,64.09
2022-11-03T10:41:30.100Z,63.70
2022-11-03T10:44:13.599Z,64.47
2022-11-03T10:46:56.426Z,63.78
2022-11-03T10:49:26.406Z,63.58
2022-11-03T10:51:58.044Z,63.68
2022-11-03T10:54:26.569Z,63.77
2022-11-03T10:56:56.120Z,64.64
2022-11-03T10:59:38.721Z,63.85
2022-11-03T11:02:16.423Z,63.79
2022-11-03T11:04:46.760Z,63.56
2022-11-03T11:07:22.048Z,63.76
2022-11-03T11:09:50.974Z,64.39
2022-11-03T11:12:25.991Z,64.21
2022-11-03T11:14:56.500Z,64.35
2022-11-03T11:17:37.158Z,64.46
2022-11-03T11:20:21.683Z,65.09
2022-11-03T11:22:51.492Z,63.98
2022-11-03T11:25:19.601Z,64.70
2022-11-03T11:27:57.922Z,65.54
2022-11-03T11:30:29.792Z,64.83
2022-11-03T11:33:01.922Z,64.35
2022-11-03T11:35:30.315Z,64.00
2022-11-03T11:38:37.302Z,64.96
2022-11-03T11:41:06.030Z,65.77
2022-11-03T11:43:33.862Z,64.74
2022-11-03T11:46:20.901Z,65.54
2022-11-03T11:49:05.085Z,64.80
2022-11-03T11:51:36.762Z,64.88
2022-11-03T11:54:18.857Z,65.37
2022-11-03T11:56:48.961Z,65.41
2022-11-03T11:59:25.158Z,65.84
2022-11-03T12:01:55.988Z,65.01
2022-11-03T12:04:27.233Z,64.81
2022-11-03T12:06:56.481Z,64.86
2022-11-03T12:09:29.537Z,65.00
2022-11-03T12:12:05.245Z,64.66
2022-11-03T12:14:38.511Z,65.14
2022-11-03T12:17:19.010Z,65.57
2022-11-03T12:19:49.097Z,64.30
2022-11-03T12:22:27.044Z,64.80
2022-11-03T12:24:59.070Z,64.57
2022-11-03T12:27:27.217Z,65.66
2022-11-03T12:29:56.688Z,64.63
2022-11-03T12:32:33.991Z,64.30
2022-11-03T12:35:08.631Z,64.44
2022-11-03T12:37:37.487Z,63.84
2022-11-03T12:40:06.830Z,63.16
2022-11-03T12:42:35.364Z,63.47
2022-11-03T12:45:04.996Z,62.64
2022-11-03T12:47:34.728Z,63.40
2022-11-03T12:50:04.815Z,62.83
2022-11-03T12:52:32.995Z,63.60
2022-11-03T12:55:00.879Z,63.53
2022-11-03T12:57:28.664Z,63.46
2022-11-03T12:59:56.696Z,63.67
2022-11-03T13:02:24.679Z,62.93
2022-11-03T13:04:52.466Z,63.01
2022-11-03T13:07:27.776Z,62.68
2022-11-03T13:09:58.334Z,62.38
2022-11-03T13:12:32.836Z,62.77
2022-11-03T13:15:04.309Z,62.48
2022-11-03T13:17:51.828Z,62.95
2022-11-03T13:20:20.099Z,63.49
2022-11-03T13:22:48.549Z,63.60
2022-11-03T13:25:17.886Z,64.10
2022-11-03T13:27:46.413Z,63.27
2022-11-03T13:30:14.684Z,63.79
2022-11-03T13:32:42.563Z,63.75
2022-11-03T13:35:13.649Z,64.56
2022-11-03T13:37:43.208Z,64.47
2022-11-03T13:40:35.570Z,63.79
2022-11-03T13:43:04.675Z,63.84
2022-11-03T13:45:33.123Z,65.27
2022-11-03T13:50:52.129Z,64.14
2022-11-03T13:56:11.397Z,64.08
2022-11-03T14:01:30.304Z,65.23
2022-11-03T14:06:47.400Z,65.30
2022-11-03T14:09:18.440Z,64.40
2022-11-03T14:12:10.487Z,64.95
2022-11-03T14:14:49.325Z,65.31
2022-11-03T14:17:21.769Z,64.85
2022-11-03T14:20:06.053Z,65.11
2022-11-03T14:22:38.510Z,65.44
2022-11-03T14:25:15.888Z,67.01
2022-11-03T14:27:51.338Z,66.32
2022-11-03T14:30:19.611Z,66.05
2022-11-03T14:32:47.838Z,65.85
2022-11-03T14:35:19.717Z,65.44
2022-11-03T14:37:59.225Z,64.30
2022-11-03T14:40:48.492Z,64.13
2022-11-03T14:43:17.388Z,64.44
2022-11-03T14:45:45.802Z,63.29
2022-11-03T14:48:16.328Z,63.05
2022-11-03T14:51:13.603Z,63.09
2022-11-03T14:53:42.440Z,63.34
2022-11-03T14:56:10.116Z,62.65
2022-11-03T14:58:38.067Z,62.78
2022-11-03T15:01:06.350Z,62.57
2022-11-03T15:03:36.106Z,62.41
2022-11-03T15:06:16.776Z,62.79
2022-11-03T15:08:50.766Z,62.47
2022-11-03T15:11:22.129Z,62.40
2022-11-03T15:13:52.633Z,62.03
2022-11-03T15:16:24.205Z,62.95
2022-11-03T15:18:54.893Z,63.08
2022-11-03T15:21:25.695Z,63.99
2022-11-03T15:26:45.828Z,65.76
2022-11-03T15:29:13.667Z,65.13
2022-11-03T15:31:47.236Z,66.04
2022-11-03T15:34:16.594Z,66.34
2022-11-03T15:36:45.491Z,65.77
2022-11-03T15:39:13.669Z,66.20
2022-11-03T15:41:42.189Z,65.52
2022-11-03T15:44:10.185Z,65.87
2022-11-03T15:46:38.095Z,65.89
2022-11-03T15:49:07.029Z,66.20
2022-11-03T15:51:35.026Z,66.43
2022-11-03T15:54:04.112Z,65.96
2022-11-03T15:56:32.296Z,65.66
2022-11-03T15:59:00.443Z,66.27
2022-11-03T16:01:28.296Z,67.13
2022-11-03T16:03:56.413Z,67.01
2022-11-03T16:06:46.526Z,67.50
2022-11-03T16:09:30.088Z,66.83
2022-11-03T16:11:59.023Z,66.89
2022-11-03T16:14:30.419Z,67.66
2022-11-03T16:16:58.984Z,67.66
2022-11-03T16:19:27.452Z,68.52
2022-11-03T16:21:56.576Z,69.05
2022-11-03T16:24:33.387Z,69.56
2022-11-03T16:27:04.935Z,69.06
2022-11-03T16:29:33.019Z,69.91
2022-11-03T16:32:01.582Z,69.40
2022-11-03T16:34:30.443Z,69.10
2022-11-03T16:36:58.535Z,69.73
2022-11-03T16:39:27.027Z,70.21
2022-11-03T16:41:57.305Z,70.46
2022-11-03T16:44:25.699Z,70.49
2022-11-03T16:46:55.318Z,70.36
2022-11-03T16:49:24.351Z,70.42
2022-11-03T16:51:52.870Z,70.54
2022-11-03T16:54:21.219Z,71.02
2022-11-03T16:56:54.524Z,70.23
2022-11-03T16:59:26.992Z,71.40
2022-11-03T17:01:57.512Z,71.04
2022-11-03T17:04:26.265Z,70.36
2022-11-03T17:06:54.316Z,69.87
2022-11-03T17:09:22.764Z,69.93
2022-11-03T17:11:50.973Z,69.97
2022-11-03T17:14:19.366Z,70.62
2022-11-03T17:16:48.821Z,69.87
2022-11-03T17:19:16.948Z,70.71
2022-11-03T17:21:45.873Z,71.48
2022-11-03T17:24:15.175Z,70.33
2022-11-03T17:26:52.897Z,71.59
2022-11-03T17:29:23.556Z,70.97
2022-11-03T17:31:52.858Z,70.20
2022-11-03T17:34:28.624Z,71.49
2022-11-03T17:37:07.926Z,71.83
2022-11-03T17:39:42.105Z,71.13
2022-11-03T17:42:26.748Z,70.24
2022-11-03T17:44:57.774Z,71.26
2022-11-03T17:47:27.510Z,70.05
2022-11-03T17:50:00.683Z,70.32
2022-11-03T17:52:29.654Z,69.89
2022-11-03T17:54:59.544Z,70.69
2022-11-03T17:57:28.541Z,70.41
2022-11-03T17:59:58.815Z,69.69
2022-11-03T18:02:31.568Z,68.97
2022-11-03T18:05:15.464Z,71.18
2022-11-03T18:07:49.249Z,70.55
2022-11-03T18:10:19.476Z,70.59
2022-11-03T18:13:08.085Z,70.92
2022-11-03T18:15:39.748Z,70.46
2022-11-03T18:18:13.702Z,71.29
2022-11-03T18:20:50.354Z,71.94
2022-11-03T18:23:24.545Z,72.45
2022-11-03T18:25:55.584Z,72.03
2022-11-03T18:28:24.049Z,71.34
2022-11-03T18:30:55.186Z,70.96
2022-11-03T18:33:26.783Z,69.77
2022-11-03T18:35:59.784Z,70.00
2022-11-03T18:38:29.750Z,70.65
2022-11-03T18:41:00.981Z,70.89
2022-11-03T18:43:33.269Z,70.83
2022-11-03T18:46:04.027Z,70.62
2022-11-03T18:48:33.320Z,70.65
2022-11-03T18:51:04.208Z,70.88
2022-11-03T18:53:32.449Z,70.41
2022-11-03T18:56:02.631Z,69.46
2022-11-03T18:58:40.644Z,69.32
2022-11-03T19:01:21.050Z,70.13
2022-11-03T19:03:50.512Z,69.49
2022-11-03T19:06:21.385Z,68.74
2022-11-03T19:08:59.029Z,68.57
2022-11-03T19:11:27.887Z,68.04
2022-11-03T19:14:00.320Z,68.05
2022-11-03T19:16:34.820Z,67.52
2022-11-03T19:19:05.221Z,67.67
2022-11-03T19:21:37.394Z,68.60
2022-11-03T19:24:07.652Z,67.56
2022-11-03T19:26:59.860Z,67.56
2022-11-03T19:29:29.366Z,68.55
2022-11-03T19:31:58.932Z,67.69
2022-11-03T19:34:31.839Z,67.59
2022-11-03T19:37:01.908Z,67.49
2022-11-03T19:39:32.299Z,67.70
2022-11-03T19:42:26.157Z,67.93
2022-11-03T19:44:58.653Z,67.80
2022-11-03T19:47:35.561Z,67.35
2022-11-03T19:50:05.916Z,67.72
2022-11-03T19:52:35.866Z,67.38
2022-11-03T19:55:06.250Z,67.08
2022-11-03T19:57:35.033Z,67.26
2022-11-03T20:00:07.473Z,67.94
2022-11-03T20:02:36.095Z,66.58
2022-11-03T20:05:06.065Z,66.97
2022-11-03T20:07:36.081Z,66.79
2022-11-03T20:10:13.363Z,65.93
2022-11-03T20:15:30.162Z,65.75
2022-11-03T20:17:58.746Z,67.37
2022-11-03T20:20:30.673Z,66.74
2022-11-03T20:23:01.058Z,66.70
2022-11-03T20:25:34.224Z,66.85
2022-11-03T20:28:18.154Z,66.13
2022-11-03T20:30:48.148Z,66.75
2022-11-03T20:33:19.934Z,66.64
2022-11-03T20:35:49.792Z,66.67
2022-11-03T20:38:20.827Z,67.29
2022-11-03T20:40:51.602Z,66.17
2022-11-03T20:43:24.540Z,66.24
2022-11-03T20:45:56.919Z,65.77
2022-11-03T20:48:27.182Z,66.14
2022-11-03T20:50:57.064Z,65.50
2022-11-03T20:53:26.879Z,66.01
2022-11-03T20:55:55.804Z,66.41
2022-11-03T20:58:25.848Z,66.43
2022-11-03T21:00:54.654Z,65.68
2022-11-03T21:06:19.651Z,65.57
2022-11-03T21:08:52.602Z,65.52
2022-11-03T21:11:24.140Z,65.01
2022-11-03T21:14:08.637Z,65.89
2022-11-03T21:16:57.159Z,65.39
2022-11-03T21:19:59.477Z,66.34
2022-11-03T21:22:56.417Z,65.99
2022-11-03T21:25:28.113Z,65.44
2022-11-03T21:27:58.921Z,65.97
2022-11-03T21:30:32.397Z,66.50
2022-11-03T21:33:04.541Z,65.27
2022-11-03T21:35:35.057Z,66.59
2022-11-03T21:38:06.701Z,66.37
2022-11-03T21:40:36.893Z,65.86
2022-11-03T21:43:25.426Z,65.90
2022-11-03T21:45:53.679Z,65.57
2022-11-03T21:48:40.785Z,66.10
2022-11-03T21:51:27.259Z,66.17
2022-11-03T21:53:56.706Z,65.27
2022-11-03T21:56:26.809Z,65.21
2022-11-03T21:58:55.503Z,65.51
2022-11-03T22:01:23.692Z,65.13
2022-11-03T22:03:51.870Z,65.15
2022-11-03T22:06:20.447Z,64.79
2022-11-03T22:08:48.205Z,65.73
2022-11-03T22:11:23.077Z,64.07
2022-11-03T22:13:58.414Z,65.51
2022-11-03T22:16:42.171Z,65.19
2022-11-03T22:19:43.551Z,65.06
2022-11-03T22:22:33.110Z,64.94
2022-11-03T22:25:22.823Z,65.56
2022-11-03T22:27:57.068Z,65.84
2022-11-03T22:30:45.158Z,65.78
2022-11-03T22:33:16.408Z,66.20
2022-11-03T22:36:04.757Z,65.44
2022-11-03T22:38:54.904Z,65.76
2022-11-03T22:41:42.858Z,65.85
2022-11-03T22:44:30.466Z,66.13
2022-11-03T22:47:03.028Z,65.27
2022-11-03T22:49:32.826Z,66.04
2022-11-03T22:52:04.661Z,66.67
2022-11-03T22:54:35.805Z,66.38
2022-11-03T22:57:05.521Z,65.40
2022-11-03T22:59:34.580Z,65.96
2022-11-03T23:02:05.368Z,66.34
2022-11-03T23:04:36.593Z,66.29
2022-11-03T23:07:06.573Z,66.00
2022-11-03T23:09:42.195Z,67.07
2022-11-03T23:12:14.344Z,66.15
2022-11-03T23:15:06.735Z,66.77
2022-11-03T23:17:56.138Z,66.11
2022-11-03T23:20:53.083Z,66.71
2022-11-03T23:23:43.187Z,66.39
2022-11-03T23:26:16.724Z,66.11
2022-11-03T23:28:48.531Z,66.47
2022-11-03T23:31:20.501Z,66.97
2022-11-03T23:33:50.855Z,67.08
2022-11-03T23:36:21.222Z,67.27
2022-11-03T23:38:54.944Z,67.63
2022-11-03T23:41:26.839Z,66.71
2022-11-03T23:43:58.176Z,67.77
2022-11-03T23:46:48.712Z,66.70
2022-11-03T23:49:18.711Z,67.53
2022-11-03T23:51:48.509Z,67.92
2022-11-03T23:54:20.686Z,67.95
2022-11-03T23:57:11.279Z,67.06
